Time;durP1;ratioP1;P1;durP2;ratioP2;P2;SDS_P1;SDS_P2;PMS_P1;PMS_P2;Temp;Humidity;BMP_temperature;BMP_pressure;BME280_temperature;BME280_humidity;BME280_pressure;Samples;Min_cycle;Max_cycle;Signal;HPM_P1;HPM_P2
2024/02/11 00:00:47;;;;;;;18.73;12.90;;;;;;;6.71;100.00;98956.06;5070698;28;20444;-78
2024/02/11 00:03:13;;;;;;;20.03;13.77;;;;;;;6.16;100.00;98897.34;5082456;28;20465;-78
2024/02/11 00:05:38;;;;;;;18.53;12.97;;;;;;;7.64;100.00;99160.53;5088966;28;20489;-78
2024/02/11 00:08:04;;;;;;;18.43;12.50;;;;;;;6.54;100.00;98956.66;5087046;28;20449;-78
2024/02/11 00:10:29;;;;;;;16.03;11.50;;;;;;;6.96;100.00;99012.81;5085316;28;20195;-78
2024/02/11 00:12:57;;;;;;;16.97;11.27;;;;;;;7.85;100.00;99145.91;5089311;28;20206;-78
2024/02/11 00:15:22;;;;;;;16.43;11.00;;;;;;;7.14;100.00;99060.03;5069985;28;20671;-78
2024/02/11 00:17:48;;;;;;;17.33;10.90;;;;;;;6.36;100.00;98879.38;5084885;28;20553;-78
2024/02/11 00:20:15;;;;;;;16.50;11.50;;;;;;;6.72;100.00;98925.75;5080203;28;20252;-78
2024/02/11 00:22:41;;;;;;;16.20;10.60;;;;;;;6.54;100.00;98903.38;5085186;28;20178;-78
2024/02/11 00:25:10;;;;;;;16.03;10.13;;;;;;;7.43;100.00;99069.19;5085533;28;20436;-78
2024/02/11 00:27:42;;;;;;;15.27;10.30;;;;;;;6.19;100.00;98888.94;5084707;28;20467;-78
2024/02/11 00:30:08;;;;;;;16.30;10.57;;;;;;;7.07;100.00;99040.63;5068369;28;21231;-78
2024/02/11 00:32:34;;;;;;;15.63;10.43;;;;;;;7.01;100.00;99023.66;5087904;28;20490;-78
2024/02/11 00:35:00;;;;;;;17.40;11.13;;;;;;;7.52;100.00;99071.53;5078234;28;20527;-78
2024/02/11 00:37:29;;;;;;;15.43;10.70;;;;;;;7.78;100.00;99113.13;5067952;28;20460;-79
2024/02/11 00:39:57;;;;;;;15.90;10.70;;;;;;;8.19;100.00;99176.53;5084666;28;20182;-79
2024/02/11 00:42:27;;;;;;;16.53;10.57;;;;;;;6.61;100.00;98951.25;5086025;28;20437;-78
2024/02/11 00:44:53;;;;;;;17.30;10.77;;;;;;;6.14;100.00;98870.16;5079634;28;20467;-78
2024/02/11 00:47:19;;;;;;;15.57;10.73;;;;;;;7.22;100.00;99026.94;5083982;28;20505;-78
2024/02/11 00:49:44;;;;;;;16.13;10.53;;;;;;;6.30;100.00;98909.53;5081495;28;21074;-79
2024/02/11 00:52:10;;;;;;;15.30;10.63;;;;;;;6.65;100.00;98968.41;5084577;28;20241;-78
2024/02/11 00:54:37;;;;;;;14.90;9.90;;;;;;;7.93;100.00;99151.78;5068484;28;20190;-78
2024/02/11 00:57:03;;;;;;;15.93;10.73;;;;;;;6.41;100.00;98939.97;5080480;28;20437;-78
2024/02/11 00:59:29;;;;;;;15.67;10.87;;;;;;;6.48;100.00;98973.50;5068148;28;20432;-78
2024/02/11 01:01:54;;;;;;;14.67;10.07;;;;;;;6.75;100.00;98981.25;5084454;28;20435;-78
2024/02/11 01:04:20;;;;;;;14.40;9.83;;;;;;;6.83;100.00;98974.81;5083559;28;20257;-78
2024/02/11 01:06:45;;;;;;;14.60;9.40;;;;;;;7.53;100.00;99100.69;5081958;28;20547;-78
2024/02/11 01:09:11;;;;;;;14.97;9.33;;;;;;;7.35;100.00;99125.50;5085217;28;20206;-78
2024/02/11 01:11:36;;;;;;;15.47;10.00;;;;;;;7.05;100.00;99044.53;5067762;28;20187;-78
2024/02/11 01:14:02;;;;;;;15.97;9.80;;;;;;;7.46;100.00;99100.75;5084544;28;20779;-78
2024/02/11 01:16:28;;;;;;;15.03;9.87;;;;;;;7.10;100.00;99034.84;5085780;28;20653;-78
2024/02/11 01:18:54;;;;;;;16.03;10.60;;;;;;;6.00;100.00;98915.50;5084020;28;20285;-78
2024/02/11 01:21:19;;;;;;;15.77;10.30;;;;;;;5.81;100.00;98841.91;5081656;28;20539;-78
2024/02/11 01:23:47;;;;;;;13.90;10.00;;;;;;;6.01;100.00;98901.16;5081100;28;20211;-78
2024/02/11 01:26:12;;;;;;;14.67;9.90;;;;;;;7.47;100.00;99098.91;5086010;28;20685;-78
2024/02/11 01:28:39;;;;;;;14.17;8.77;;;;;;;5.99;100.00;98863.31;5080004;28;20452;-78
2024/02/11 01:31:06;;;;;;;14.70;9.70;;;;;;;6.91;100.00;99004.66;5065471;28;20234;-78
2024/02/11 01:33:32;;;;;;;14.87;9.90;;;;;;;7.13;100.00;99058.41;5088348;28;20467;-79
2024/02/11 01:35:57;;;;;;;14.83;9.80;;;;;;;6.64;100.00;98968.66;5095598;28;20436;-78
2024/02/11 01:38:23;;;;;;;14.83;9.20;;;;;;;7.45;100.00;99124.97;5082866;28;20215;-78
2024/02/11 01:40:50;;;;;;;14.50;9.27;;;;;;;6.33;100.00;98933.91;5083709;28;20197;-78
2024/02/11 01:43:16;;;;;;;14.37;10.03;;;;;;;7.85;100.00;99165.41;5081644;28;20184;-78
2024/02/11 01:45:41;;;;;;;12.23;8.43;;;;;;;6.51;100.00;98951.75;5083767;28;20445;-78
2024/02/11 01:48:09;;;;;;;13.60;9.17;;;;;;;6.34;100.00;98932.03;5067586;28;20460;-78
2024/02/11 01:50:37;;;;;;;13.73;8.90;;;;;;;7.98;100.00;99207.16;5079345;28;20682;-78
2024/02/11 01:53:04;;;;;;;14.13;9.30;;;;;;;5.82;100.00;98798.34;5066635;28;20830;-77
2024/02/11 01:55:32;;;;;;;13.57;8.53;;;;;;;5.76;100.00;98833.81;5083708;28;20451;-78
2024/02/11 01:57:58;;;;;;;15.07;9.90;;;;;;;7.15;100.00;99083.00;5085304;28;20836;-78
2024/02/11 02:00:24;;;;;;;14.70;8.97;;;;;;;7.32;100.00;99088.59;5071729;28;20444;-78
2024/02/11 02:02:54;;;;;;;14.77;9.40;;;;;;;8.14;100.00;99246.66;5087192;28;20440;-78
2024/02/11 02:05:20;;;;;;;18.33;10.93;;;;;;;6.52;100.00;99004.00;5083486;28;20531;-78
2024/02/11 02:07:45;;;;;;;16.10;10.37;;;;;;;7.13;100.00;99122.38;5088430;28;20542;-78
2024/02/11 02:10:11;;;;;;;18.83;11.97;;;;;;;7.16;100.00;99089.16;5083565;28;20198;-78
2024/02/11 02:12:37;;;;;;;20.43;13.13;;;;;;;7.11;100.00;99064.97;5090280;28;20574;-78
2024/02/11 02:15:04;;;;;;;20.63;13.83;;;;;;;7.02;100.00;99113.25;5088961;28;20607;-78
2024/02/11 02:17:29;;;;;;;21.13;14.17;;;;;;;6.08;100.00;98970.34;5070935;28;20468;-78
2024/02/11 02:19:54;;;;;;;20.03;13.23;;;;;;;5.43;100.00;98840.16;5087314;28;20449;-78
2024/02/11 02:22:20;;;;;;;20.97;14.90;;;;;;;6.60;100.00;99058.06;5071165;28;20205;-78
2024/02/11 02:24:49;;;;;;;21.60;15.47;;;;;;;6.27;100.00;98979.19;5088060;28;20210;-78
2024/02/11 02:27:17;;;;;;;21.13;14.87;;;;;;;6.57;100.00;99053.97;5087659;28;20211;-78
2024/02/11 02:29:44;;;;;;;22.10;14.77;;;;;;;6.39;100.00;99032.56;5088029;28;20535;-78
2024/02/11 02:32:11;;;;;;;20.53;15.10;;;;;;;5.32;100.00;98832.84;5070677;28;20495;-78
2024/02/11 02:34:37;;;;;;;24.40;16.83;;;;;;;6.07;100.00;98905.59;5089483;28;20531;-78
2024/02/11 02:37:03;;;;;;;24.40;16.13;;;;;;;6.56;100.00;99028.34;5088302;28;20856;-78
2024/02/11 02:39:28;;;;;;;23.00;16.20;;;;;;;5.65;100.00;98883.19;5084212;28;20449;-78
2024/02/11 02:41:54;;;;;;;24.30;16.80;;;;;;;4.97;100.00;98820.75;5086702;28;20762;-78
2024/02/11 02:44:19;;;;;;;23.07;15.60;;;;;;;6.08;100.00;98981.78;5088377;28;20193;-78
2024/02/11 02:46:45;;;;;;;23.10;16.33;;;;;;;6.70;100.00;99032.53;5086518;28;20190;-78
2024/02/11 02:49:12;;;;;;;24.53;17.43;;;;;;;6.10;100.00;98965.59;5088290;28;20190;-78
2024/02/11 02:51:39;;;;;;;25.63;17.60;;;;;;;5.98;100.00;98935.38;5087654;28;20182;-78
2024/02/11 02:54:05;;;;;;;22.63;15.63;;;;;;;6.31;100.00;99020.34;5090900;28;20464;-78
2024/02/11 02:56:32;;;;;;;23.90;16.90;;;;;;;5.97;100.00;98969.16;5089808;28;20834;-78
2024/02/11 02:58:58;;;;;;;25.83;17.40;;;;;;;6.09;100.00;98955.97;5088848;28;20847;-78
2024/02/11 03:01:26;;;;;;;24.57;16.70;;;;;;;6.94;100.00;99054.06;5088614;28;20436;-78
2024/02/11 03:03:52;;;;;;;25.57;16.80;;;;;;;7.83;100.00;99190.69;5069671;28;20908;-78
2024/02/11 03:06:18;;;;;;;26.20;17.50;;;;;;;6.63;100.00;99036.31;5068872;28;20935;-78
2024/02/11 03:08:43;;;;;;;25.67;17.50;;;;;;;5.91;100.00;98897.34;5088762;28;20463;-78
2024/02/11 03:11:09;;;;;;;23.40;16.63;;;;;;;6.74;100.00;99023.09;5070416;28;20257;-78
2024/02/11 03:13:34;;;;;;;23.20;16.70;;;;;;;5.40;100.00;98853.88;5084546;28;20218;-78
2024/02/11 03:15:59;;;;;;;23.07;15.53;;;;;;;6.98;100.00;99033.94;5087755;28;20194;-78
2024/02/11 03:18:25;;;;;;;24.40;16.63;;;;;;;6.81;100.00;99044.34;5084509;28;20202;-78
2024/02/11 03:20:51;;;;;;;23.50;15.97;;;;;;;6.03;100.00;98903.63;5069829;28;20267;-78
2024/02/11 03:23:17;;;;;;;26.00;17.20;;;;;;;5.12;100.00;98777.16;5069719;28;20309;-78
2024/02/11 03:25:45;;;;;;;22.30;16.20;;;;;;;6.61;100.00;99004.53;5088581;28;20221;-78
2024/02/11 03:28:12;;;;;;;24.70;17.03;;;;;;;6.60;100.00;98991.44;5066747;28;21170;-78
2024/02/11 03:30:38;;;;;;;24.73;16.60;;;;;;;5.67;100.00;98862.50;5087318;28;20444;-78
2024/02/11 03:33:04;;;;;;;26.23;17.13;;;;;;;5.69;100.00;98822.38;5085093;28;20487;-78
2024/02/11 03:35:29;;;;;;;23.83;18.00;;;;;;;6.29;100.00;98972.63;5068314;28;20210;-78
2024/02/11 03:37:55;;;;;;;25.30;18.00;;;;;;;6.27;100.00;98958.69;5083169;28;20218;-78
2024/02/11 03:40:20;;;;;;;24.90;17.70;;;;;;;6.44;100.00;98950.19;5086439;28;20205;-78
2024/02/11 03:42:46;;;;;;;27.63;18.33;;;;;;;5.53;100.00;98792.63;5070423;28;20178;-78
2024/02/11 03:45:14;;;;;;;30.10;19.23;;;;;;;5.97;100.00;98899.16;5085554;28;20281;-78
2024/02/11 03:47:40;;;;;;;26.73;17.30;;;;;;;7.28;100.00;99102.56;5085830;28;20206;-79
2024/02/11 03:50:09;;;;;;;23.20;16.40;;;;;;;6.20;100.00;98951.81;5068190;28;20449;-78
2024/02/11 03:52:35;;;;;;;29.40;18.50;;;;;;;6.96;100.00;99047.47;5082164;28;20475;-78
2024/02/11 03:55:02;;;;;;;25.57;17.83;;;;;;;5.93;100.00;98917.41;5084612;28;20428;-78
2024/02/11 03:57:28;;;;;;;25.60;17.80;;;;;;;5.86;100.00;98897.97;5085806;28;20213;-78
2024/02/11 03:59:53;;;;;;;27.50;18.07;;;;;;;5.63;100.00;98861.28;5093714;28;20433;-78
2024/02/11 04:02:19;;;;;;;26.70;17.30;;;;;;;4.88;100.00;98752.16;5083154;28;20277;-78
2024/02/11 04:04:45;;;;;;;25.00;17.23;;;;;;;6.17;100.00;98954.91;5086323;28;20235;-78
2024/02/11 04:07:11;;;;;;;25.43;18.13;;;;;;;6.74;100.00;99036.41;5086172;28;20269;-78
2024/02/11 04:09:39;;;;;;;26.30;18.13;;;;;;;5.21;100.00;98786.50;5083812;28;20534;-78
2024/02/11 04:12:08;;;;;;;25.90;17.13;;;;;;;6.84;100.00;99081.22;5084393;28;20188;-78
2024/02/11 04:14:40;;;;;;;26.37;18.17;;;;;;;6.02;100.00;98942.72;5080406;28;20505;-78
2024/02/11 04:17:12;;;;;;;23.90;16.73;;;;;;;5.73;100.00;98863.47;5082722;28;20436;-78
2024/02/11 04:19:39;;;;;;;25.37;17.10;;;;;;;5.53;100.00;98848.47;5121043;22;20495;-79
2024/02/11 04:22:04;;;;;;;26.10;18.00;;;;;;;5.42;100.00;98818.06;5066694;28;20551;-79
2024/02/11 04:24:30;;;;;;;24.30;16.50;;;;;;;6.68;100.00;99007.97;5083022;28;20441;-79
2024/02/11 04:26:55;;;;;;;28.07;17.60;;;;;;;5.46;100.00;98823.75;5088032;28;20214;-80
2024/02/11 04:29:21;;;;;;;29.37;18.13;;;;;;;7.60;100.00;99191.31;5062460;28;20237;-79
2024/02/11 04:31:47;;;;;;;28.13;17.87;;;;;;;6.15;100.00;98935.66;5073544;28;20225;-79
2024/02/11 04:34:14;;;;;;;27.00;17.43;;;;;;;5.91;100.00;98906.13;5088355;28;20444;-80
2024/02/11 04:36:41;;;;;;;25.53;16.93;;;;;;;5.57;100.00;98852.31;5074843;28;20948;-79
2024/02/11 04:39:08;;;;;;;26.10;17.33;;;;;;;5.41;100.00;98797.03;5065736;28;20952;-80
2024/02/11 04:41:37;;;;;;;24.07;16.60;;;;;;;6.45;100.00;98949.97;5072060;28;20532;-79
2024/02/11 04:44:05;;;;;;;26.50;16.70;;;;;;;5.63;100.00;98811.56;5071894;28;20805;-79
2024/02/11 04:46:32;;;;;;;25.57;16.43;;;;;;;6.30;100.00;98928.16;5073217;28;20884;-79
2024/02/11 04:48:58;;;;;;;26.27;16.67;;;;;;;5.39;100.00;98759.19;5073860;28;20598;-79
2024/02/11 04:51:26;;;;;;;26.27;16.60;;;;;;;5.12;100.00;98713.38;5068389;28;20518;-81
2024/02/11 04:53:53;;;;;;;27.43;17.00;;;;;;;6.60;100.00;98936.31;5073075;28;20471;-78
2024/02/11 04:56:18;;;;;;;27.30;17.27;;;;;;;6.24;100.00;98878.47;5084855;28;20953;-80
2024/02/11 04:58:44;;;;;;;26.73;16.80;;;;;;;6.34;100.00;98916.06;5085815;28;20210;-79
2024/02/11 05:01:09;;;;;;;27.27;16.80;;;;;;;5.15;100.00;98713.78;5084169;28;20189;-79
2024/02/11 05:03:35;;;;;;;26.13;16.10;;;;;;;6.26;100.00;98897.69;5090750;28;20226;-79
2024/02/11 05:06:07;;;;;;;25.67;15.57;;;;;;;6.19;100.00;98955.50;5072859;28;20231;-79
2024/02/11 05:08:32;;;;;;;25.67;15.60;;;;;;;5.79;100.00;98891.91;5069042;28;20221;-79
2024/02/11 05:11:00;;;;;;;25.13;15.40;;;;;;;4.67;100.00;98702.81;5086756;28;20444;-80
2024/02/11 05:13:29;;;;;;;26.33;16.07;;;;;;;6.09;100.00;98919.53;5084820;28;20222;-79
2024/02/11 05:15:59;;;;;;;23.17;14.70;;;;;;;6.47;100.00;98963.88;5089101;28;20500;-79
2024/02/11 05:18:27;;;;;;;27.17;16.27;;;;;;;5.78;100.00;98890.25;5088218;28;20621;-80
2024/02/11 05:20:52;;;;;;;27.23;15.63;;;;;;;5.26;100.00;98764.59;5070327;28;20436;-79
2024/02/11 05:23:19;;;;;;;25.93;16.00;;;;;;;6.34;100.00;98956.81;5085436;28;20905;-79
2024/02/11 05:25:45;;;;;;;30.53;16.67;;;;;;;5.21;100.00;98762.59;5069976;28;20182;-78
2024/02/11 05:28:15;;;;;;;26.20;15.20;;;;;;;6.14;100.00;98899.44;5087159;28;20466;-80
2024/02/11 05:30:42;;;;;;;25.23;15.27;;;;;;;5.95;100.00;98907.34;5067851;28;20282;-79
2024/02/11 05:33:09;;;;;;;26.73;15.90;;;;;;;5.14;100.00;98767.94;5070804;28;20457;-79
2024/02/11 05:35:37;;;;;;;27.73;15.57;;;;;;;5.17;100.00;98803.91;5090143;28;20486;-79
2024/02/11 05:38:03;;;;;;;25.93;15.37;;;;;;;6.69;100.00;98995.47;5089053;28;20464;-79
2024/02/11 05:40:41;;;;;;;26.17;16.43;;;;;;;4.72;100.00;98708.31;5075263;28;20845;-79
2024/02/11 05:43:15;;;;;;;25.37;15.03;;;;;;;7.54;100.00;99168.19;5091706;28;20456;-77
2024/02/11 05:45:40;;;;;;;28.17;16.47;;;;;;;5.92;100.00;98891.78;5088594;28;20532;-79
2024/02/11 05:48:07;;;;;;;27.43;17.00;;;;;;;5.87;100.00;98907.56;5093145;28;20551;-79
2024/02/11 05:50:34;;;;;;;26.27;15.57;;;;;;;4.86;100.00;98741.75;5089223;28;20527;-79
2024/02/11 05:53:00;;;;;;;26.53;15.90;;;;;;;6.39;100.00;98989.97;5089201;28;20466;-79
2024/02/11 05:55:26;;;;;;;28.53;15.53;;;;;;;6.43;100.00;98968.00;5075288;28;20436;-79
2024/02/11 05:57:53;;;;;;;27.23;15.03;;;;;;;4.65;100.00;98662.38;5072470;28;20467;-78
2024/02/11 06:00:29;;;;;;;27.90;16.83;;;;;;;5.33;100.00;98835.31;5092086;28;20444;-78
2024/02/11 06:02:55;;;;;;;25.77;15.60;;;;;;;6.05;100.00;98905.03;5073526;28;20432;-80
2024/02/11 06:05:22;;;;;;;25.17;15.23;;;;;;;5.77;100.00;98926.69;5091357;28;20444;-79
2024/02/11 06:07:51;;;;;;;24.53;15.23;;;;;;;5.63;100.00;98920.63;5086193;28;20460;-79
2024/02/11 06:10:20;;;;;;;26.23;14.83;;;;;;;5.32;100.00;98854.94;5070482;28;20817;-78
2024/02/11 06:12:46;;;;;;;28.60;16.03;;;;;;;5.12;100.00;98844.41;5073444;28;20487;-79
2024/02/11 06:15:14;;;;;;;23.13;14.30;;;;;;;4.64;100.00;98733.28;5089774;28;20439;-78
2024/02/11 06:17:41;;;;;;;24.10;15.10;;;;;;;6.42;100.00;98979.72;5074516;28;20480;-80
2024/02/11 06:20:13;;;;;;;25.17;15.10;;;;;;;4.99;100.00;98802.78;5077755;28;20509;-78
2024/02/11 06:22:44;;;;;;;27.10;15.03;;;;;;;6.38;100.00;98991.81;5091862;28;20452;-79
2024/02/11 06:25:11;;;;;;;26.70;15.07;;;;;;;7.58;100.00;99204.91;5091542;28;20424;-79
2024/02/11 06:27:38;;;;;;;23.93;14.00;;;;;;;4.78;100.00;98789.00;5091536;28;20463;-78
2024/02/11 06:30:08;;;;;;;24.93;14.30;;;;;;;5.94;100.00;98961.59;5067167;28;20441;-79
2024/02/11 06:32:36;;;;;;;23.43;13.13;;;;;;;6.57;100.00;99036.13;5091396;28;20478;-79
2024/02/11 06:35:03;;;;;;;20.20;13.40;;;;;;;7.60;100.00;99205.47;5074506;28;20437;-79
2024/02/11 06:37:31;;;;;;;21.43;13.63;;;;;;;5.31;100.00;98869.25;5074728;28;20484;-79
2024/02/11 06:39:58;;;;;;;20.43;13.07;;;;;;;4.97;100.00;98778.25;5073334;28;20437;-79
2024/02/11 06:42:26;;;;;;;23.80;13.03;;;;;;;5.21;100.00;98839.69;5069629;28;20440;-79
2024/02/11 06:44:53;;;;;;;23.67;14.10;;;;;;;6.08;100.00;98999.59;5067584;28;20944;-79
2024/02/11 06:47:19;;;;;;;25.77;14.17;;;;;;;6.93;100.00;99127.88;5068533;28;20443;-79
2024/02/11 06:49:45;;;;;;;23.73;12.60;;;;;;;5.05;100.00;98853.44;5072351;28;20433;-79
2024/02/11 06:52:11;;;;;;;26.53;14.93;;;;;;;6.54;100.00;99057.88;5088962;28;20788;-79
2024/02/11 06:54:40;;;;;;;25.50;14.50;;;;;;;5.25;100.00;98879.94;5087644;28;20443;-78
2024/02/11 06:57:10;;;;;;;23.87;14.53;;;;;;;6.62;100.00;99075.44;5071158;28;20448;-79
2024/02/11 06:59:36;;;;;;;24.37;13.53;;;;;;;5.60;100.00;98934.34;5072278;28;20509;-78
2024/02/11 07:02:05;;;;;;;24.80;14.10;;;;;;;6.00;100.00;98979.38;5074907;28;20932;-79
2024/02/11 07:04:34;;;;;;;22.90;13.10;;;;;;;5.21;100.00;98852.97;5091583;28;20439;-79
2024/02/11 07:07:02;;;;;;;26.20;13.50;;;;;;;5.36;100.00;98893.38;5092194;28;20432;-79
2024/02/11 07:09:27;;;;;;;20.80;13.23;;;;;;;6.38;100.00;99070.88;5069643;28;20440;-79
2024/02/11 07:11:57;;;;;;;25.00;12.80;;;;;;;6.23;100.00;99015.28;5068748;28;20436;-79
2024/02/11 07:14:23;;;;;;;22.30;13.10;;;;;;;4.70;100.00;98812.09;5074828;28;20189;-78
2024/02/11 07:16:49;;;;;;;22.00;12.80;;;;;;;5.01;100.00;98847.75;5091437;28;20437;-78
2024/02/11 07:19:15;;;;;;;23.03;12.80;;;;;;;7.27;100.00;99266.31;5071426;28;20472;-79
2024/02/11 07:21:41;;;;;;;23.13;13.17;;;;;;;5.10;100.00;98843.00;5092323;28;20823;-79
2024/02/11 07:24:07;;;;;;;26.50;15.50;;;;;;;4.40;100.00;98756.06;5092054;28;20424;-78
2024/02/11 07:26:33;;;;;;;21.27;13.23;;;;;;;4.15;100.00;98721.41;5086611;28;20439;-78
2024/02/11 07:29:03;;;;;;;21.13;13.00;;;;;;;6.38;100.00;99031.75;5089542;28;20464;-80
2024/02/11 07:31:29;;;;;;;24.43;14.50;;;;;;;6.89;100.00;99172.00;5071480;28;20454;-80
2024/02/11 07:33:54;;;;;;;22.47;12.10;;;;;;;5.69;100.00;98968.69;5091492;28;20529;-80
2024/02/11 07:36:22;;;;;;;23.63;13.60;;;;;;;4.88;100.00;98853.09;5091139;28;20424;-79
2024/02/11 07:38:51;;;;;;;24.10;13.70;;;;;;;5.06;100.00;98861.19;5088955;28;20203;-78
2024/02/11 07:41:20;;;;;;;25.83;13.20;;;;;;;5.08;100.00;98887.56;5090291;28;20941;-79
2024/02/11 07:43:52;;;;;;;20.53;12.30;;;;;;;5.12;100.00;98904.69;5092440;28;20506;-79
2024/02/11 07:46:19;;;;;;;25.00;14.33;;;;;;;5.25;100.00;98922.47;5069403;28;20435;-79
2024/02/11 07:48:46;;;;;;;19.57;11.40;;;;;;;6.10;100.00;99032.97;5071690;28;20609;-79
2024/02/11 07:51:14;;;;;;;22.70;12.60;;;;;;;7.19;100.00;99238.03;5071828;28;20441;-79
2024/02/11 07:53:40;;;;;;;22.93;13.17;;;;;;;7.28;100.00;99242.06;5086875;28;20856;-78
2024/02/11 07:56:14;;;;;;;20.00;12.20;;;;;;;4.83;100.00;98877.66;5091737;28;20491;-78
2024/02/11 07:58:40;;;;;;;20.73;12.00;;;;;;;5.98;100.00;99016.03;5084239;28;20464;-79
2024/02/11 08:01:05;;;;;;;21.60;12.47;;;;;;;4.75;100.00;98803.50;5088423;28;20852;-80
2024/02/11 08:03:32;;;;;;;23.27;13.13;;;;;;;6.34;100.00;99050.03;5087323;28;20440;-79
2024/02/11 08:05:58;;;;;;;21.07;12.10;;;;;;;5.84;100.00;99020.59;5084793;28;20186;-79
2024/02/11 08:08:23;;;;;;;23.30;12.80;;;;;;;5.61;100.00;98965.25;5067967;28;20543;-79
2024/02/11 08:10:48;;;;;;;22.10;13.03;;;;;;;4.47;100.00;98793.19;5091521;28;20193;-79
2024/02/11 08:13:14;;;;;;;23.87;13.00;;;;;;;6.41;100.00;99079.25;5084565;28;20663;-79
2024/02/11 08:15:39;;;;;;;23.73;13.60;;;;;;;4.33;100.00;98735.84;5084122;28;20179;-79
2024/02/11 08:18:06;;;;;;;19.87;11.90;;;;;;;4.39;100.00;98778.28;5085273;28;20206;-79
2024/02/11 08:20:31;;;;;;;22.87;13.40;;;;;;;5.43;100.00;98946.50;5089470;28;20194;-79
2024/02/11 08:22:58;;;;;;;21.17;11.23;;;;;;;5.04;100.00;98875.72;5084660;28;20428;-78
2024/02/11 08:25:23;;;;;;;21.20;11.00;;;;;;;4.18;100.00;98790.00;5089589;28;20206;-78
2024/02/11 08:27:49;;;;;;;18.80;11.73;;;;;;;4.48;100.00;98808.06;5065648;28;20530;-78
2024/02/11 08:30:20;;;;;;;20.77;11.87;;;;;;;5.51;100.00;98996.78;5088708;28;20257;-79
2024/02/11 08:32:45;;;;;;;22.37;12.33;;;;;;;6.27;100.00;99085.69;5086921;28;20475;-78
2024/02/11 08:35:11;;;;;;;23.80;11.90;;;;;;;5.51;100.00;98978.19;5086919;28;20786;-79
2024/02/11 08:37:39;;;;;;;23.67;12.30;;;;;;;5.98;100.00;99090.53;5066581;28;20210;-78
2024/02/11 08:40:05;;;;;;;22.50;12.93;;;;;;;6.26;100.00;99132.00;5072636;28;20178;-79
2024/02/11 08:42:30;;;;;;;23.00;12.80;;;;;;;4.45;100.00;98819.94;5074046;28;20421;-78
2024/02/11 08:44:58;;;;;;;20.97;11.80;;;;;;;4.90;100.00;98872.31;5069655;28;20428;-79
2024/02/11 08:47:24;;;;;;;24.20;12.50;;;;;;;4.43;100.00;98818.53;5088071;28;20226;-78
2024/02/11 08:49:50;;;;;;;21.37;11.73;;;;;;;4.55;100.00;98816.03;5087157;28;20436;-77
2024/02/11 08:52:16;;;;;;;23.60;11.30;;;;;;;5.56;100.00;99004.97;5090232;28;20428;-78
2024/02/11 08:54:41;;;;;;;22.80;12.63;;;;;;;4.88;100.00;98899.06;5088473;28;20186;-77
2024/02/11 08:57:09;;;;;;;19.70;11.13;;;;;;;5.57;100.00;98997.78;5084327;28;20189;-78
2024/02/11 08:59:38;;;;;;;19.07;11.07;;;;;;;4.45;100.00;98787.25;5068827;28;20440;-78
2024/02/11 09:02:04;;;;;;;20.53;11.33;;;;;;;4.22;100.00;98782.41;5087776;28;20435;-79
2024/02/11 09:04:29;;;;;;;20.30;11.07;;;;;;;5.37;100.00;98952.66;5085004;28;20437;-77
2024/02/11 09:06:55;;;;;;;20.13;11.70;;;;;;;4.78;100.00;98827.00;5087897;28;20212;-78
2024/02/11 09:09:27;;;;;;;17.27;10.17;;;;;;;5.84;100.00;99027.72;5069257;28;20202;-78
2024/02/11 09:11:54;;;;;;;19.00;10.60;;;;;;;5.31;100.00;98919.75;5070241;28;21444;-79
2024/02/11 09:14:20;;;;;;;18.47;10.33;;;;;;;5.82;100.00;98995.22;5076961;28;20476;-78
2024/02/11 09:16:46;;;;;;;20.57;10.60;;;;;;;5.21;100.00;98943.34;5087506;28;20812;-79
2024/02/11 09:19:11;;;;;;;17.20;10.03;;;;;;;6.09;100.00;99089.88;5069184;28;20805;-79
2024/02/11 09:21:37;;;;;;;17.23;10.57;;;;;;;5.02;100.00;98869.81;5072162;28;20186;-79
2024/02/11 09:24:02;;;;;;;17.30;9.60;;;;;;;5.12;100.00;98871.00;5075460;28;20182;-80
2024/02/11 09:26:28;;;;;;;19.33;9.70;;;;;;;4.43;100.00;98792.78;5092241;28;20194;-81
2024/02/11 09:28:55;;;;;;;17.80;10.30;;;;;;;5.39;100.00;98922.19;5069691;28;20217;-79
2024/02/11 09:31:21;;;;;;;18.07;10.20;;;;;;;7.17;100.00;99240.91;5069486;28;21322;-78
2024/02/11 09:33:47;;;;;;;21.57;11.40;;;;;;;5.80;100.00;98994.63;5086549;28;20479;-79
2024/02/11 09:36:13;;;;;;;18.93;11.20;;;;;;;5.25;100.00;98933.91;5068729;28;20940;-79
2024/02/11 09:38:38;;;;;;;20.17;10.97;;;;;;;4.45;100.00;98809.31;5065616;28;20202;-78
2024/02/11 09:41:06;;;;;;;19.73;11.10;;;;;;;5.36;100.00;98999.72;5080818;28;20704;-79
2024/02/11 09:43:37;;;;;;;22.97;10.80;;;;;;;4.70;100.00;98845.81;5062748;28;20643;-78
2024/02/11 09:46:04;;;;;;;19.80;11.50;;;;;;;5.05;100.00;98880.00;5083542;28;20454;-79
2024/02/11 09:48:32;;;;;;;22.43;13.17;;;;;;;7.52;100.00;99304.50;5070371;28;20973;-80
2024/02/11 09:50:59;;;;;;;22.27;12.47;;;;;;;5.32;100.00;98961.28;5072443;28;20515;-79
2024/02/11 09:53:27;;;;;;;24.33;13.90;;;;;;;6.30;100.00;99110.03;5072150;28;20487;-79
2024/02/11 09:55:55;;;;;;;22.03;12.80;;;;;;;5.29;100.00;98932.44;5085587;28;20455;-78
2024/02/11 09:58:21;;;;;;;20.70;12.90;;;;;;;5.84;100.00;99025.06;5086787;28;20457;-79
2024/02/11 10:00:47;;;;;;;22.30;12.57;;;;;;;5.02;100.00;98867.97;5068227;28;20501;-78
2024/02/11 10:03:17;;;;;;;20.52;13.20;;;;;;;5.05;100.00;98866.72;5085010;28;20416;-78
2024/02/11 10:05:48;;;;;;;23.23;13.63;;;;;;;6.15;100.00;99061.59;5069835;28;21923;-77
2024/02/11 10:08:14;;;;;;;23.33;12.90;;;;;;;5.08;100.00;98900.84;5081850;28;20456;-76
2024/02/11 10:10:43;;;;;;;24.37;14.27;;;;;;;6.31;100.00;99074.41;5065483;28;20448;-77
2024/02/11 10:13:19;;;;;;;21.97;12.93;;;;;;;4.95;100.00;98843.28;5067398;28;20467;-78
2024/02/11 10:15:49;;;;;;;20.80;12.87;;;;;;;5.72;100.00;98954.94;5065329;28;20500;-78
2024/02/11 10:18:17;;;;;;;24.30;13.63;;;;;;;6.09;100.00;99051.81;5066408;28;20451;-78
2024/02/11 10:20:47;;;;;;;20.60;12.40;;;;;;;5.94;100.00;99030.00;5097517;22;20493;-75
2024/02/11 10:23:14;;;;;;;23.73;13.27;;;;;;;5.62;100.00;98987.34;5090439;28;20433;-76
2024/02/11 10:25:39;;;;;;;23.43;13.63;;;;;;;6.98;100.00;99200.03;5069871;28;20522;-76
2024/02/11 10:28:06;;;;;;;25.83;14.00;;;;;;;6.74;100.00;99139.50;5074014;28;20563;-75
2024/02/11 10:30:34;;;;;;;26.23;13.60;;;;;;;6.99;100.00;99222.97;5068333;28;20285;-74
2024/02/11 10:33:01;;;;;;;22.87;14.17;;;;;;;7.89;100.00;99341.97;5072568;28;20476;-76
2024/02/11 10:35:28;;;;;;;20.93;13.13;;;;;;;5.31;100.00;98887.88;5069687;28;20444;-74
2024/02/11 10:37:55;;;;;;;22.53;13.60;;;;;;;7.05;100.00;99228.50;5051821;28;20476;-75
2024/02/11 10:40:23;;;;;;;23.20;13.47;;;;;;;5.91;100.00;99039.19;5047939;28;20795;-75
2024/02/11 10:42:50;;;;;;;24.23;14.07;;;;;;;5.70;100.00;98999.56;5071421;28;20425;-75
2024/02/11 10:45:16;;;;;;;22.37;12.90;;;;;;;6.95;100.00;99165.00;5066820;28;20500;-75
2024/02/11 10:47:42;;;;;;;25.23;14.60;;;;;;;6.55;100.00;99088.00;5056848;28;20543;-75
2024/02/11 10:50:08;;;;;;;28.23;14.30;;;;;;;7.56;100.00;99260.34;5069542;28;20728;-75
2024/02/11 10:52:42;;;;;;;24.80;13.60;;;;;;;6.61;100.00;99110.28;5068003;28;20207;-75
2024/02/11 10:55:13;;;;;;;28.30;13.27;;;;;;;5.95;100.00;99013.78;5068901;28;20810;-75
2024/02/11 10:58:02;;;;;;;23.90;14.03;;;;;;;6.40;100.00;99085.63;5066925;28;20499;-75
2024/02/11 11:00:31;;;;;;;20.93;12.70;;;;;;;7.15;100.00;99207.50;5069691;28;20441;-75
2024/02/11 11:02:59;;;;;;;24.47;13.13;;;;;;;5.89;100.00;98977.38;5070542;28;20433;-75
2024/02/11 11:05:32;;;;;;;23.40;13.50;;;;;;;6.61;100.00;99104.97;5077659;28;20437;-75
2024/02/11 11:08:00;;;;;;;24.13;13.40;;;;;;;6.77;100.00;99147.91;5069489;28;20461;-74
2024/02/11 11:10:29;;;;;;;27.23;13.67;;;;;;;7.02;100.00;99185.22;5067906;28;20921;-76
2024/02/11 11:12:55;;;;;;;22.23;13.57;;;;;;;6.44;100.00;99089.47;5054792;28;20501;-75
2024/02/11 11:15:31;;;;;;;22.20;13.03;;;;;;;7.29;100.00;99217.06;5053510;28;20445;-76